Time;durP1;ratioP1;P1;durP2;ratioP2;P2;SDS_P1;SDS_P2;PMS_P1;PMS_P2;Temp;Humidity;BMP_temperature;BMP_pressure;BME280_temperature;BME280_humidity;BME280_pressure;Samples;Min_cycle;Max_cycle;Signal;HPM_P1;HPM_P2
2022/11/03 00:01:09;;;;;;;56.65;37.97;;;;;;;;;;5121300;28;20019;-77
2022/11/03 00:03:35;;;;;;;60.30;40.85;;;;;;;;;;5119627;27;20032;-75
2022/11/03 00:06:04;;;;;;;59.10;39.83;;;;;;;;;;5123918;27;20108;-75
2022/11/03 00:08:37;;;;;;;58.50;40.97;;;;;;;;;;5115112;27;20032;-73
2022/11/03 00:11:03;;;;;;;59.03;42.85;;;;;;;;;;5123886;27;20035;-74
2022/11/03 00:13:29;;;;;;;62.90;46.08;;;;;;;;;;5124923;27;20012;-74
2022/11/03 00:15:54;;;;;;;66.80;45.40;;;;;;;;;;5125688;27;20027;-77
2022/11/03 00:18:19;;;;;;;65.03;47.15;;;;;;;;;;5125698;27;20055;-77
2022/11/03 00:20:53;;;;;;;70.60;45.08;;;;;;;;;;5125345;27;20042;-73
2022/11/03 00:23:19;;;;;;;69.63;48.63;;;;;;;;;;5124281;27;20117;-74
2022/11/03 00:25:44;;;;;;;67.95;45.97;;;;;;;;;;5122912;27;20533;-75
2022/11/03 00:28:09;;;;;;;68.60;48.50;;;;;;;;;;5125312;27;20342;-78
2022/11/03 00:30:35;;;;;;;76.97;50.13;;;;;;;;;;5124790;27;20346;-75
2022/11/03 00:33:00;;;;;;;80.00;53.35;;;;;;;;;;5122609;27;20358;-74
2022/11/03 00:35:25;;;;;;;77.43;53.70;;;;;;;;;;5125028;27;20019;-77
2022/11/03 00:37:51;;;;;;;82.93;52.30;;;;;;;;;;5123662;27;20083;-75
2022/11/03 00:40:16;;;;;;;89.60;57.50;;;;;;;;;;5125293;27;20116;-74
2022/11/03 00:42:42;;;;;;;88.15;58.15;;;;;;;;;;5124659;27;20034;-73
2022/11/03 00:45:08;;;;;;;87.70;57.60;;;;;;;;;;5124306;27;20030;-74
2022/11/03 00:47:33;;;;;;;87.38;58.20;;;;;;;;;;5124310;27;20422;-75
2022/11/03 00:49:58;;;;;;;89.47;58.38;;;;;;;;;;5123037;27;20019;-78
2022/11/03 00:52:24;;;;;;;91.45;58.60;;;;;;;;;;5126297;27;20438;-75
2022/11/03 00:54:49;;;;;;;95.72;61.58;;;;;;;;;;5125410;27;20026;-74
2022/11/03 00:57:14;;;;;;;93.28;59.78;;;;;;;;;;5124584;27;20027;-73
2022/11/03 00:59:39;;;;;;;94.03;59.05;;;;;;;;;;5125005;27;20030;-76
2022/11/03 01:02:05;;;;;;;98.45;61.47;;;;;;;;;;5123916;27;20041;-74
2022/11/03 01:07:14;;;;;;;99.22;62.97;;;;;;;;;;5124458;27;20030;-74
2022/11/03 01:09:42;;;;;;;94.00;60.00;;;;;;;;;;5123771;27;20027;-74
2022/11/03 01:12:07;;;;;;;92.57;60.53;;;;;;;;;;5122874;27;20026;-74
2022/11/03 01:14:35;;;;;;;93.07;59.25;;;;;;;;;;5122447;27;20107;-76
2022/11/03 01:17:03;;;;;;;99.57;59.22;;;;;;;;;;5124871;27;20343;-74
2022/11/03 01:19:28;;;;;;;94.53;61.85;;;;;;;;;;5124578;27;20020;-75
2022/11/03 01:21:54;;;;;;;95.72;59.92;;;;;;;;;;5122840;27;20031;-73
2022/11/03 01:24:19;;;;;;;92.22;57.03;;;;;;;;;;5123759;27;20027;-74
2022/11/03 01:26:45;;;;;;;90.95;59.90;;;;;;;;;;5124672;27;20109;-74
2022/11/03 01:29:10;;;;;;;95.10;61.28;;;;;;;;;;5106168;27;20026;-73
2022/11/03 01:31:36;;;;;;;93.32;57.50;;;;;;;;;;5124439;27;20454;-75
2022/11/03 01:34:01;;;;;;;97.88;60.55;;;;;;;;;;5125523;27;20034;-73
2022/11/03 01:36:26;;;;;;;89.50;57.88;;;;;;;;;;5124174;27;20066;-77
2022/11/03 01:38:53;;;;;;;93.25;60.08;;;;;;;;;;5123271;27;20469;-76
2022/11/03 01:41:19;;;;;;;97.93;59.15;;;;;;;;;;5123698;27;21280;-75
2022/11/03 01:43:46;;;;;;;95.10;59.65;;;;;;;;;;5116434;27;20036;-79
2022/11/03 01:46:18;;;;;;;94.85;59.53;;;;;;;;;;5118964;27;20032;-75
2022/11/03 01:49:02;;;;;;;91.53;59.28;;;;;;;;;;5123922;27;20059;-73
2022/11/03 01:51:29;;;;;;;90.25;61.25;;;;;;;;;;5122360;27;20043;-71
2022/11/03 01:53:56;;;;;;;90.28;61.72;;;;;;;;;;5121950;27;20012;-74
2022/11/03 01:56:22;;;;;;;94.88;63.20;;;;;;;;;;5125024;27;20015;-73
2022/11/03 01:58:49;;;;;;;100.93;65.68;;;;;;;;;;5121985;27;20114;-75
2022/11/03 02:01:14;;;;;;;100.88;64.40;;;;;;;;;;5122464;27;20507;-76
2022/11/03 02:03:43;;;;;;;94.15;61.10;;;;;;;;;;5123924;27;20132;-73
2022/11/03 02:06:08;;;;;;;94.80;60.75;;;;;;;;;;5122603;27;20442;-76
2022/11/03 02:08:37;;;;;;;91.72;59.40;;;;;;;;;;5123952;27;20044;-74
2022/11/03 02:12:05;;;;;;;97.28;60.95;;;;;;;;;;5124412;27;20027;-75
2022/11/03 02:13:47;;;;;;;91.55;60.95;;;;;;;;;;5120737;27;20095;-75
2022/11/03 02:16:13;;;;;;;88.32;58.42;;;;;;;;;;5113382;27;20023;-74
2022/11/03 02:18:39;;;;;;;95.50;58.65;;;;;;;;;;5119872;27;20114;-74
2022/11/03 02:21:16;;;;;;;92.00;58.30;;;;;;;;;;5114161;27;20099;-76
2022/11/03 02:23:50;;;;;;;93.93;61.22;;;;;;;;;;5123143;27;20334;-75
2022/11/03 02:26:16;;;;;;;89.43;58.92;;;;;;;;;;5123150;27;20027;-73
2022/11/03 02:28:41;;;;;;;91.13;56.65;;;;;;;;;;5123651;27;20027;-74
2022/11/03 02:31:12;;;;;;;87.03;58.72;;;;;;;;;;5123808;27;20074;-75
2022/11/03 02:33:41;;;;;;;87.20;56.42;;;;;;;;;;5123906;27;20422;-74
2022/11/03 02:36:13;;;;;;;86.47;58.58;;;;;;;;;;5122792;27;20023;-74
2022/11/03 02:38:43;;;;;;;92.38;58.97;;;;;;;;;;5122355;27;20742;-73
2022/11/03 02:41:09;;;;;;;91.30;61.10;;;;;;;;;;5114961;27;20069;-75
2022/11/03 02:43:36;;;;;;;97.00;63.42;;;;;;;;;;5111756;27;20023;-75
2022/11/03 02:46:03;;;;;;;95.00;61.85;;;;;;;;;;5122193;27;20023;-77
2022/11/03 02:48:29;;;;;;;98.57;60.53;;;;;;;;;;5122234;27;20023;-75
2022/11/03 02:50:54;;;;;;;94.78;59.40;;;;;;;;;;5122466;27;20024;-74
2022/11/03 02:53:20;;;;;;;93.90;61.05;;;;;;;;;;5123003;27;20175;-74
2022/11/03 02:55:54;;;;;;;94.20;62.30;;;;;;;;;;5121167;27;20019;-74
2022/11/03 02:58:28;;;;;;;91.72;59.90;;;;;;;;;;5120042;27;20481;-74
2022/11/03 03:01:01;;;;;;;92.47;59.03;;;;;;;;;;5108177;27;20167;-78
2022/11/03 03:03:37;;;;;;;91.70;59.22;;;;;;;;;;5104746;28;20385;-75
2022/11/03 03:06:08;;;;;;;94.22;59.17;;;;;;;;;;5122352;28;20062;-74
2022/11/03 03:08:37;;;;;;;97.45;58.53;;;;;;;;;;5122097;28;20442;-75
2022/11/03 03:11:03;;;;;;;89.57;56.60;;;;;;;;;;5122783;28;20024;-73
2022/11/03 03:13:29;;;;;;;93.38;57.25;;;;;;;;;;5122841;28;20106;-73
2022/11/03 03:15:57;;;;;;;90.25;60.33;;;;;;;;;;5122250;28;20106;-75
2022/11/03 03:18:29;;;;;;;81.30;53.50;;;;;;;;;;5123122;28;20043;-74
2022/11/03 03:21:04;;;;;;;81.70;54.25;;;;;;;;;;5122191;28;20039;-74
2022/11/03 03:23:32;;;;;;;85.20;54.70;;;;;;;;;;5121913;28;20046;-72
2022/11/03 03:26:02;;;;;;;86.25;56.90;;;;;;;;;;5121186;28;20365;-74
2022/11/03 03:28:54;;;;;;;81.65;55.65;;;;;;;;;;5122357;28;20031;-77
2022/11/03 03:31:20;;;;;;;89.28;56.67;;;;;;;;;;5117578;28;20135;-73
2022/11/03 03:33:46;;;;;;;83.10;53.95;;;;;;;;;;5121789;28;20142;-76
2022/11/03 03:36:13;;;;;;;81.65;52.15;;;;;;;;;;5119788;28;20489;-77
2022/11/03 03:38:40;;;;;;;74.43;50.75;;;;;;;;;;5124969;27;20105;-75
2022/11/03 03:41:08;;;;;;;74.40;48.63;;;;;;;;;;5126924;27;20058;-75
2022/11/03 03:43:33;;;;;;;71.80;48.70;;;;;;;;;;5108678;27;20438;-74
2022/11/03 03:46:02;;;;;;;77.32;50.67;;;;;;;;;;5125959;27;20027;-72
2022/11/03 03:48:28;;;;;;;70.68;48.47;;;;;;;;;;5126897;27;20023;-73
2022/11/03 03:50:53;;;;;;;64.93;47.10;;;;;;;;;;5125691;27;20035;-72
2022/11/03 03:53:19;;;;;;;71.80;49.08;;;;;;;;;;5126126;27;20080;-75
2022/11/03 03:55:46;;;;;;;65.28;45.67;;;;;;;;;;5125771;27;20058;-73
2022/11/03 03:58:12;;;;;;;65.65;48.78;;;;;;;;;;5113046;27;20096;-73
2022/11/03 04:00:38;;;;;;;67.63;48.60;;;;;;;;;;5123804;27;20142;-74
2022/11/03 04:03:04;;;;;;;69.80;50.13;;;;;;;;;;5125684;27;20038;-75
2022/11/03 04:05:30;;;;;;;64.28;47.25;;;;;;;;;;5126270;27;20358;-73
2022/11/03 04:07:55;;;;;;;68.45;49.20;;;;;;;;;;5114430;27;20027;-76
2022/11/03 04:10:22;;;;;;;70.63;50.17;;;;;;;;;;5126433;27;20030;-73
2022/11/03 04:23:44;;;;;;;67.50;48.30;;;;;;;;;;5125321;27;20069;-74
2022/11/03 04:26:17;;;;;;;64.30;46.30;;;;;;;;;;5125813;27;20047;-74
2022/11/03 04:28:42;;;;;;;63.85;45.95;;;;;;;;;;5125997;27;20470;-74
2022/11/03 04:31:15;;;;;;;63.28;45.88;;;;;;;;;;5124584;27;20126;-78
2022/11/03 04:33:41;;;;;;;62.88;46.58;;;;;;;;;;5124462;27;20076;-74
2022/11/03 04:36:18;;;;;;;67.80;49.70;;;;;;;;;;5124325;27;20031;-76
2022/11/03 04:38:44;;;;;;;68.28;48.38;;;;;;;;;;5125186;27;20503;-73
2022/11/03 04:41:15;;;;;;;69.63;48.47;;;;;;;;;;5118654;27;20023;-75
2022/11/03 04:43:40;;;;;;;76.28;57.10;;;;;;;;;;5093193;27;20039;-75
2022/11/03 04:46:09;;;;;;;73.78;54.47;;;;;;;;;;5122015;27;20031;-76
2022/11/03 04:48:34;;;;;;;87.25;57.47;;;;;;;;;;5124511;27;20023;-72
2022/11/03 04:51:01;;;;;;;85.25;60.05;;;;;;;;;;5122729;27;20025;-73
2022/11/03 04:53:31;;;;;;;85.70;60.85;;;;;;;;;;5122976;27;20042;-76
2022/11/03 04:55:57;;;;;;;88.20;63.92;;;;;;;;;;5125730;27;20034;-74
2022/11/03 04:58:27;;;;;;;83.93;61.58;;;;;;;;;;5124558;27;20023;-74
2022/11/03 05:00:55;;;;;;;83.22;62.35;;;;;;;;;;5123582;27;20033;-76
2022/11/03 05:03:22;;;;;;;78.28;58.30;;;;;;;;;;5123588;27;20031;-75
2022/11/03 05:05:47;;;;;;;73.00;52.75;;;;;;;;;;5124811;27;20039;-75
2022/11/03 05:08:15;;;;;;;67.57;48.92;;;;;;;;;;5111369;27;20041;-74
2022/11/03 05:10:40;;;;;;;70.00;46.95;;;;;;;;;;5106222;27;20034;-74
2022/11/03 05:13:08;;;;;;;59.85;44.78;;;;;;;;;;5105069;27;20028;-73
2022/11/03 05:15:35;;;;;;;59.40;43.42;;;;;;;;;;5110178;27;20467;-73
2022/11/03 05:18:02;;;;;;;59.85;43.58;;;;;;;;;;5108136;27;20541;-71
2022/11/03 05:20:33;;;;;;;66.93;45.80;;;;;;;;;;5113698;27;20082;-73
2022/11/03 05:22:59;;;;;;;62.20;46.83;;;;;;;;;;5123352;27;20583;-75
2022/11/03 05:25:32;;;;;;;129.82;98.35;;;;;;;;;;5111274;27;20015;-75
2022/11/03 05:27:57;;;;;;;93.13;66.43;;;;;;;;;;5108395;27;20031;-77
2022/11/03 05:30:23;;;;;;;67.45;45.50;;;;;;;;;;5113559;27;20025;-76
2022/11/03 05:32:48;;;;;;;63.83;43.42;;;;;;;;;;5123679;27;20145;-74
2022/11/03 05:35:21;;;;;;;63.50;42.53;;;;;;;;;;5122833;27;20019;-74
2022/11/03 05:37:46;;;;;;;62.42;44.22;;;;;;;;;;5122953;27;20466;-77
2022/11/03 05:40:24;;;;;;;96.75;69.95;;;;;;;;;;5121124;27;20054;-75
2022/11/03 05:42:57;;;;;;;134.38;97.07;;;;;;;;;;5113844;27;21931;-75
2022/11/03 05:45:25;;;;;;;69.07;48.70;;;;;;;;;;5114810;27;20031;-77
2022/11/03 05:47:54;;;;;;;55.42;41.00;;;;;;;;;;5111530;27;20094;-77
2022/11/03 05:50:20;;;;;;;61.42;42.55;;;;;;;;;;5121379;27;20023;-75
2022/11/03 05:52:47;;;;;;;56.53;41.13;;;;;;;;;;5103644;27;20447;-77
2022/11/03 05:55:21;;;;;;;66.35;47.95;;;;;;;;;;5111001;27;20039;-77
2022/11/03 05:57:47;;;;;;;60.92;42.53;;;;;;;;;;5109292;27;20027;-77
2022/11/03 06:00:38;;;;;;;69.53;47.63;;;;;;;;;;5108564;27;20080;-74
2022/11/03 06:03:04;;;;;;;53.08;40.22;;;;;;;;;;5104447;27;20054;-75
2022/11/03 06:05:31;;;;;;;91.13;63.05;;;;;;;;;;5090040;27;20023;-74
2022/11/03 06:07:58;;;;;;;68.30;45.97;;;;;;;;;;5115155;27;20434;-77
2022/11/03 06:10:26;;;;;;;70.25;47.33;;;;;;;;;;5123958;27;20058;-76
2022/11/03 06:12:56;;;;;;;63.53;47.70;;;;;;;;;;5109018;27;20034;-78
2022/11/03 06:15:41;;;;;;;75.40;51.88;;;;;;;;;;5106270;27;20458;-74
2022/11/03 06:18:15;;;;;;;67.28;44.70;;;;;;;;;;5107238;27;20043;-78
2022/11/03 06:20:40;;;;;;;58.55;43.58;;;;;;;;;;5111772;27;20034;-73
2022/11/03 06:23:08;;;;;;;75.32;51.03;;;;;;;;;;5121044;27;20027;-74
2022/11/03 06:25:35;;;;;;;73.40;53.13;;;;;;;;;;5120097;27;23022;-75
2022/11/03 06:28:05;;;;;;;105.38;77.35;;;;;;;;;;5111498;27;20047;-75
2022/11/03 06:30:32;;;;;;;126.30;93.10;;;;;;;;;;5122683;27;20019;-76
2022/11/03 06:32:59;;;;;;;117.07;88.72;;;;;;;;;;5115176;27;20038;-75
2022/11/03 06:35:24;;;;;;;65.13;46.83;;;;;;;;;;5114723;27;20072;-77
2022/11/03 06:37:50;;;;;;;59.30;40.10;;;;;;;;;;5123253;27;20023;-77
2022/11/03 06:40:15;;;;;;;51.85;36.63;;;;;;;;;;5122873;27;20092;-76
2022/11/03 06:42:41;;;;;;;58.00;41.17;;;;;;;;;;5120278;27;20043;-76
2022/11/03 06:45:10;;;;;;;62.10;44.08;;;;;;;;;;5123363;27;20040;-73
2022/11/03 06:47:35;;;;;;;61.53;45.28;;;;;;;;;;5122498;27;20805;-73
2022/11/03 06:50:00;;;;;;;64.63;48.95;;;;;;;;;;5122775;27;20055;-75
2022/11/03 06:52:27;;;;;;;76.40;53.35;;;;;;;;;;5123796;27;20105;-75
2022/11/03 06:55:13;;;;;;;79.22;49.45;;;;;;;;;;5121723;27;20091;-73
2022/11/03 06:57:40;;;;;;;57.75;37.75;;;;;;;;;;5109948;27;20027;-77
2022/11/03 07:00:28;;;;;;;59.90;36.78;;;;;;;;;;5120829;27;20426;-74
2022/11/03 07:03:14;;;;;;;59.90;42.67;;;;;;;;;;5122454;27;20044;-75
2022/11/03 07:05:40;;;;;;;52.15;34.78;;;;;;;;;;5120215;27;20384;-74
2022/11/03 07:08:29;;;;;;;81.30;59.10;;;;;;;;;;5122572;28;20580;-73
2022/11/03 07:11:14;;;;;;;67.78;45.47;;;;;;;;;;5121013;28;20027;-73
2022/11/03 07:13:40;;;;;;;64.70;46.15;;;;;;;;;;5122750;27;20035;-74
2022/11/03 07:16:25;;;;;;;49.17;33.90;;;;;;;;;;5126508;27;20023;-74
2022/11/03 07:18:51;;;;;;;50.65;35.95;;;;;;;;;;5122233;27;20478;-73
2022/11/03 07:21:22;;;;;;;48.05;33.15;;;;;;;;;;5124817;27;20029;-76
2022/11/03 07:23:47;;;;;;;51.92;35.85;;;;;;;;;;5125713;27;20042;-73
2022/11/03 07:26:13;;;;;;;55.65;42.05;;;;;;;;;;5123755;27;20030;-74
2022/11/03 07:28:38;;;;;;;49.17;37.78;;;;;;;;;;5126445;27;20023;-74
2022/11/03 07:31:15;;;;;;;54.50;36.70;;;;;;;;;;5126096;27;20027;-74
2022/11/03 07:33:40;;;;;;;50.30;37.85;;;;;;;;;;5126196;27;20035;-75
2022/11/03 07:36:07;;;;;;;52.90;38.00;;;;;;;;;;5126234;27;20400;-74
2022/11/03 07:38:33;;;;;;;45.78;34.80;;;;;;;;;;5126834;27;20018;-75
2022/11/03 07:40:58;;;;;;;50.47;37.65;;;;;;;;;;5124759;27;20023;-77
2022/11/03 07:43:27;;;;;;;48.35;37.17;;;;;;;;;;5125773;27;20359;-75
2022/11/03 07:45:53;;;;;;;45.88;34.58;;;;;;;;;;5125740;27;20396;-76
2022/11/03 07:48:27;;;;;;;40.97;30.17;;;;;;;;;;5123821;27;20052;-76
2022/11/03 07:50:54;;;;;;;43.72;30.42;;;;;;;;;;5125617;27;20019;-75
2022/11/03 07:53:37;;;;;;;46.30;33.30;;;;;;;;;;5125713;27;20118;-77
2022/11/03 07:56:14;;;;;;;49.38;33.28;;;;;;;;;;5124926;27;20442;-77
2022/11/03 07:58:40;;;;;;;51.20;35.58;;;;;;;;;;5126343;27;20019;-78
2022/11/03 08:01:23;;;;;;;46.17;36.03;;;;;;;;;;5126361;27;20038;-76
2022/11/03 08:03:49;;;;;;;52.65;35.88;;;;;;;;;;5126397;27;20038;-75
2022/11/03 08:06:15;;;;;;;51.90;34.25;;;;;;;;;;5123866;27;20031;-74
2022/11/03 08:08:40;;;;;;;57.33;38.30;;;;;;;;;;5125484;27;20035;-75
2022/11/03 08:11:05;;;;;;;58.65;39.03;;;;;;;;;;5124391;27;20019;-74
2022/11/03 08:13:31;;;;;;;53.85;37.58;;;;;;;;;;5124364;27;20068;-74
2022/11/03 08:15:56;;;;;;;52.28;34.08;;;;;;;;;;5125863;27;20025;-76
2022/11/03 08:18:22;;;;;;;60.75;40.53;;;;;;;;;;5124542;27;20043;-75
2022/11/03 08:20:48;;;;;;;50.28;35.22;;;;;;;;;;5125432;27;21031;-75
2022/11/03 08:23:13;;;;;;;52.83;36.30;;;;;;;;;;5124102;27;20031;-76
2022/11/03 08:25:38;;;;;;;48.58;33.60;;;;;;;;;;5124897;27;20096;-74
2022/11/03 08:28:04;;;;;;;57.55;41.33;;;;;;;;;;5124295;27;20163;-75
2022/11/03 08:30:29;;;;;;;53.70;37.17;;;;;;;;;;5124721;27;20391;-75
2022/11/03 08:32:55;;;;;;;63.92;40.30;;;;;;;;;;5124949;27;20047;-75
2022/11/03 08:35:20;;;;;;;56.45;39.47;;;;;;;;;;5122903;27;20029;-76
2022/11/03 08:37:45;;;;;;;54.70;35.97;;;;;;;;;;5124227;27;20043;-75
2022/11/03 08:40:12;;;;;;;46.42;32.83;;;;;;;;;;5124709;27;20057;-75
2022/11/03 08:42:37;;;;;;;45.13;32.60;;;;;;;;;;5124702;27;20018;-78
2022/11/03 08:45:02;;;;;;;47.03;31.38;;;;;;;;;;5126061;27;20383;-76
2022/11/03 08:47:28;;;;;;;42.75;30.40;;;;;;;;;;5125776;27;20424;-75
2022/11/03 08:49:53;;;;;;;42.25;30.02;;;;;;;;;;5123909;27;20023;-75
2022/11/03 08:52:18;;;;;;;41.15;29.35;;;;;;;;;;5123094;27;20339;-75
2022/11/03 08:54:44;;;;;;;36.20;25.65;;;;;;;;;;5124326;27;20467;-75
2022/11/03 08:57:09;;;;;;;39.22;29.08;;;;;;;;;;5125495;27;20015;-74
2022/11/03 08:59:34;;;;;;;39.33;27.90;;;;;;;;;;5124755;27;20095;-76
2022/11/03 09:01:59;;;;;;;39.75;29.33;;;;;;;;;;5123762;27;20040;-75
2022/11/03 09:04:25;;;;;;;41.47;29.83;;;;;;;;;;5123833;27;20112;-74
2022/11/03 09:06:50;;;;;;;42.95;29.50;;;;;;;;;;5123761;27;21146;-76
2022/11/03 09:09:15;;;;;;;41.20;28.98;;;;;;;;;;5125353;27;20031;-75
2022/11/03 09:11:41;;;;;;;43.28;28.35;;;;;;;;;;5123902;27;20023;-73
2022/11/03 09:14:06;;;;;;;39.50;26.98;;;;;;;;;;5125246;27;20029;-75
2022/11/03 09:16:31;;;;;;;41.53;28.00;;;;;;;;;;5123646;27;20049;-75
2022/11/03 09:18:57;;;;;;;35.83;26.30;;;;;;;;;;5123448;27;20153;-74
2022/11/03 09:21:22;;;;;;;35.17;25.65;;;;;;;;;;5123958;27;20132;-75
2022/11/03 09:23:47;;;;;;;40.10;27.80;;;;;;;;;;5123329;27;20072;-76
2022/11/03 09:26:13;;;;;;;37.13;26.30;;;;;;;;;;5123875;27;20035;-75
2022/11/03 09:28:38;;;;;;;36.60;27.10;;;;;;;;;;5124085;27;20023;-76
2022/11/03 09:31:03;;;;;;;37.63;27.65;;;;;;;;;;5124656;27;20319;-75
2022/11/03 09:33:29;;;;;;;37.30;25.52;;;;;;;;;;5123377;27;20474;-76
2022/11/03 09:35:54;;;;;;;33.08;24.00;;;;;;;;;;5103946;27;21258;-77
2022/11/03 09:38:20;;;;;;;32.70;24.33;;;;;;;;;;5124577;27;20015;-75
2022/11/03 09:40:45;;;;;;;36.47;26.83;;;;;;;;;;5120477;27;20027;-76
2022/11/03 09:43:10;;;;;;;33.28;23.98;;;;;;;;;;5122909;27;20027;-76
2022/11/03 09:45:37;;;;;;;32.25;22.67;;;;;;;;;;5123894;27;20034;-75
2022/11/03 09:48:02;;;;;;;32.53;23.63;;;;;;;;;;5123717;27;20103;-77
2022/11/03 09:50:27;;;;;;;32.63;23.25;;;;;;;;;;5123298;27;20413;-77
2022/11/03 09:52:54;;;;;;;34.80;23.02;;;;;;;;;;5124342;27;20489;-76
2022/11/03 09:55:23;;;;;;;31.80;22.80;;;;;;;;;;5123501;27;20035;-77
2022/11/03 09:57:51;;;;;;;27.27;21.92;;;;;;;;;;5123356;27;20046;-76
2022/11/03 10:00:20;;;;;;;30.00;20.70;;;;;;;;;;5122616;27;20091;-75
2022/11/03 10:02:45;;;;;;;;;;;;;;;;;;5124008;27;20042;-75
2022/11/03 10:05:12;;;;;;;25.27;19.83;;;;;;;;;;5124335;27;19915;-75
2022/11/03 10:07:38;;;;;;;30.30;19.33;;;;;;;;;;5121940;27;20106;-75
2022/11/03 10:10:04;;;;;;;27.73;19.83;;;;;;;;;;5122509;27;20106;-77
2022/11/03 10:12:31;;;;;;;23.17;18.23;;;;;;;;;;5123447;27;20101;-76
2022/11/03 10:14:56;;;;;;;23.98;17.95;;;;;;;;;;5123216;27;20030;-74
2022/11/03 10:17:25;;;;;;;23.20;15.45;;;;;;;;;;5121656;27;20352;-77
2022/11/03 10:19:51;;;;;;;20.67;15.67;;;;;;;;;;5104942;27;20042;-76
2022/11/03 10:22:17;;;;;;;19.60;14.95;;;;;;;;;;5122665;27;20023;-78
2022/11/03 10:24:43;;;;;;;19.77;14.60;;;;;;;;;;5123685;27;20460;-76
2022/11/03 10:27:24;;;;;;;19.70;14.85;;;;;;;;;;5123934;27;20034;-74
2022/11/03 10:30:07;;;;;;;22.42;15.63;;;;;;;;;;5121188;27;20465;-75
2022/11/03 10:32:33;;;;;;;20.50;15.73;;;;;;;;;;5120772;27;20039;-76
2022/11/03 10:34:59;;;;;;;23.48;14.40;;;;;;;;;;5123989;27;20031;-77
2022/11/03 10:37:25;;;;;;;20.55;16.10;;;;;;;;;;5121516;27;20038;-77
2022/11/03 10:39:51;;;;;;;21.70;16.05;;;;;;;;;;5123860;27;20027;-75
2022/11/03 10:42:19;;;;;;;20.15;15.23;;;;;;;;;;5122665;27;20031;-76
2022/11/03 10:44:45;;;;;;;19.73;15.20;;;;;;;;;;5122855;27;20045;-75
2022/11/03 10:47:21;;;;;;;19.65;13.95;;;;;;;;;;5122233;27;20019;-78
2022/11/03 10:49:46;;;;;;;18.02;14.15;;;;;;;;;;5121816;27;20027;-77
2022/11/03 10:52:18;;;;;;;20.42;15.18;;;;;;;;;;5123205;27;20026;-75
2022/11/03 10:54:43;;;;;;;19.70;14.95;;;;;;;;;;5122180;27;20035;-76
2022/11/03 10:57:08;;;;;;;18.70;14.25;;;;;;;;;;5122610;27;20151;-75
2022/11/03 10:59:36;;;;;;;19.23;14.38;;;;;;;;;;5123164;27;20073;-76
2022/11/03 11:02:02;;;;;;;18.98;13.73;;;;;;;;;;5119934;27;20087;-76
2022/11/03 11:04:28;;;;;;;19.98;13.60;;;;;;;;;;5122661;27;20481;-76
2022/11/03 11:06:53;;;;;;;24.05;17.02;;;;;;;;;;5122736;27;20063;-78
2022/11/03 11:09:21;;;;;;;22.55;15.30;;;;;;;;;;5122018;27;20106;-76
2022/11/03 11:12:02;;;;;;;19.67;14.05;;;;;;;;;;5123181;28;20066;-76
2022/11/03 11:14:27;;;;;;;17.13;12.38;;;;;;;;;;5121613;28;20454;-76
2022/11/03 11:16:52;;;;;;;17.40;11.75;;;;;;;;;;5121243;28;20039;-76
2022/11/03 11:19:18;;;;;;;15.38;11.25;;;;;;;;;;5122095;28;20058;-76
2022/11/03 11:21:46;;;;;;;15.30;11.13;;;;;;;;;;5121726;28;20343;-75
2022/11/03 11:24:12;;;;;;;16.60;10.90;;;;;;;;;;5122767;28;20018;-76
2022/11/03 11:26:38;;;;;;;14.88;11.70;;;;;;;;;;5122443;28;20035;-77
2022/11/03 11:29:14;;;;;;;16.55;11.00;;;;;;;;;;5120575;28;20018;-76
2022/11/03 11:31:40;;;;;;;14.85;10.93;;;;;;;;;;5120716;28;20030;-76
2022/11/03 11:34:08;;;;;;;17.02;11.23;;;;;;;;;;5122208;28;20035;-77
2022/11/03 11:36:35;;;;;;;14.07;10.33;;;;;;;;;;5121123;28;20345;-77
2022/11/03 11:39:01;;;;;;;12.65;10.35;;;;;;;;;;5122803;28;20088;-76
2022/11/03 11:41:45;;;;;;;14.82;11.50;;;;;;;;;;5120917;28;20054;-76
2022/11/03 11:44:29;;;;;;;14.63;10.75;;;;;;;;;;5122260;28;20027;-76
2022/11/03 11:46:55;;;;;;;19.33;11.35;;;;;;;;;;5103974;28;20348;-78
2022/11/03 11:49:20;;;;;;;17.73;11.20;;;;;;;;;;5121455;28;20034;-77
2022/11/03 11:51:46;;;;;;;15.45;9.55;;;;;;;;;;5122743;28;20755;-78
2022/11/03 11:54:14;;;;;;;15.02;9.40;;;;;;;;;;5121931;28;20114;-78
2022/11/03 11:56:41;;;;;;;12.15;9.15;;;;;;;;;;5120731;28;20331;-77
2022/11/03 11:59:12;;;;;;;12.27;9.70;;;;;;;;;;5124170;27;20046;-78
2022/11/03 12:01:40;;;;;;;11.88;9.73;;;;;;;;;;5123848;27;20042;-78
2022/11/03 12:04:06;;;;;;;14.25;9.57;;;;;;;;;;5124613;27;20027;-77
2022/11/03 12:06:39;;;;;;;12.85;9.07;;;;;;;;;;5126407;27;20030;-77
2022/11/03 12:09:05;;;;;;;10.23;7.93;;;;;;;;;;5125082;27;20715;-77
2022/11/03 12:11:43;;;;;;;14.05;8.98;;;;;;;;;;5123006;27;20067;-78
2022/11/03 12:14:21;;;;;;;13.02;9.25;;;;;;;;;;5124292;27;20031;-77
2022/11/03 12:16:47;;;;;;;15.00;11.05;;;;;;;;;;5125480;27;20030;-76
2022/11/03 12:19:30;;;;;;;16.90;12.02;;;;;;;;;;5123967;27;20082;-81
2022/11/03 12:21:56;;;;;;;21.10;9.10;;;;;;;;;;5123603;27;20110;-77
2022/11/03 12:24:25;;;;;;;14.85;9.05;;;;;;;;;;5125243;27;20133;-76
2022/11/03 12:26:50;;;;;;;;;;;;;;;;;;5124031;27;20460;-80
2022/11/03 12:29:15;;;;;;;11.27;8.43;;;;;;;;;;5125300;27;19946;-78
2022/11/03 12:31:41;;;;;;;14.25;9.48;;;;;;;;;;5126402;27;20049;-76
2022/11/03 12:34:06;;;;;;;13.80;9.73;;;;;;;;;;5124556;27;20023;-78
2022/11/03 12:36:31;;;;;;;11.75;9.50;;;;;;;;;;5123902;27;20107;-76
2022/11/03 12:38:57;;;;;;;14.07;9.18;;;;;;;;;;5125325;27;20059;-76
2022/11/03 12:41:25;;;;;;;12.77;8.90;;;;;;;;;;5123304;27;20062;-76
2022/11/03 12:43:51;;;;;;;12.33;9.23;;;;;;;;;;5124479;27;20103;-76
2022/11/03 12:46:17;;;;;;;12.95;8.30;;;;;;;;;;5125447;27;20259;-75
2022/11/03 12:48:43;;;;;;;13.00;8.43;;;;;;;;;;5124120;27;20477;-76
2022/11/03 12:51:12;;;;;;;10.70;7.32;;;;;;;;;;5124149;27;20038;-76
2022/11/03 12:53:38;;;;;;;13.38;6.28;;;;;;;;;;5123822;27;20054;-76
2022/11/03 12:56:03;;;;;;;8.80;6.70;;;;;;;;;;5123614;27;20517;-76
2022/11/03 12:58:28;;;;;;;10.20;7.05;;;;;;;;;;5123977;27;20031;-77
2022/11/03 13:00:54;;;;;;;9.48;6.53;;;;;;;;;;5124288;27;20110;-76
2022/11/03 13:03:19;;;;;;;12.48;6.57;;;;;;;;;;5125056;27;20058;-76
2022/11/03 13:05:44;;;;;;;8.40;7.18;;;;;;;;;;5123570;27;20031;-79
2022/11/03 13:08:10;;;;;;;14.25;7.32;;;;;;;;;;5126061;27;20350;-78
2022/11/03 13:10:35;;;;;;;11.98;9.48;;;;;;;;;;5122741;27;20027;-78
2022/11/03 13:13:00;;;;;;;12.85;9.32;;;;;;;;;;5123770;27;20026;-77
2022/11/03 13:15:26;;;;;;;11.32;7.93;;;;;;;;;;5123803;27;20023;-77
2022/11/03 13:17:51;;;;;;;10.93;7.40;;;;;;;;;;5122157;27;20078;-76
2022/11/03 13:20:17;;;;;;;10.82;7.35;;;;;;;;;;5125458;27;20065;-78
2022/11/03 13:22:42;;;;;;;9.10;6.43;;;;;;;;;;5124518;27;20076;-78
2022/11/03 13:25:08;;;;;;;9.40;6.60;;;;;;;;;;5124060;27;20035;-77
2022/11/03 13:27:33;;;;;;;7.85;5.63;;;;;;;;;;5123127;27;20434;-78
2022/11/03 13:29:59;;;;;;;10.15;6.95;;;;;;;;;;5125656;27;20027;-77
2022/11/03 13:32:24;;;;;;;7.72;6.47;;;;;;;;;;5122700;27;20070;-77
2022/11/03 13:34:49;;;;;;;9.00;6.93;;;;;;;;;;5122572;27;20433;-76
2022/11/03 13:37:15;;;;;;;8.77;6.97;;;;;;;;;;5123456;27;20027;-77
2022/11/03 13:39:40;;;;;;;10.45;6.93;;;;;;;;;;5123968;27;20035;-76
2022/11/03 13:42:05;;;;;;;10.45;6.38;;;;;;;;;;5123116;27;20092;-77
2022/11/03 13:44:31;;;;;;;8.95;7.15;;;;;;;;;;5124020;27;20038;-75
2022/11/03 13:46:56;;;;;;;11.15;8.50;;;;;;;;;;5123729;27;20106;-77
2022/11/03 13:49:23;;;;;;;11.85;9.77;;;;;;;;;;5124887;27;20445;-76
2022/11/03 13:51:48;;;;;;;11.27;9.02;;;;;;;;;;5123081;27;20028;-77
2022/11/03 13:54:13;;;;;;;9.32;8.02;;;;;;;;;;5124391;27;20080;-77
2022/11/03 13:56:39;;;;;;;9.32;7.00;;;;;;;;;;5122922;27;20027;-77
2022/11/03 13:59:04;;;;;;;8.23;6.25;;;;;;;;;;5103620;27;20068;-78
2022/11/03 14:01:29;;;;;;;9.93;6.80;;;;;;;;;;5123412;27;20098;-77
2022/11/03 14:03:55;;;;;;;13.27;7.72;;;;;;;;;;5110060;27;20174;-77
2022/11/03 14:06:20;;;;;;;11.57;7.75;;;;;;;;;;5108724;27;20373;-77
2022/11/03 14:08:45;;;;;;;10.90;7.68;;;;;;;;;;5110205;27;20400;-76
2022/11/03 14:13:55;;;;;;;10.75;7.93;;;;;;;;;;5111547;27;20106;-79
2022/11/03 14:16:20;;;;;;;14.07;9.18;;;;;;;;;;5109547;27;20114;-76
2022/11/03 14:18:46;;;;;;;13.27;9.25;;;;;;;;;;5108464;27;20043;-76
2022/11/03 14:21:11;;;;;;;16.25;8.82;;;;;;;;;;5107366;27;20078;-75
2022/11/03 14:23:36;;;;;;;14.38;10.25;;;;;;;;;;5119157;27;20042;-77
2022/11/03 14:26:01;;;;;;;16.88;9.52;;;;;;;;;;5122628;27;20026;-80
2022/11/03 14:28:27;;;;;;;15.48;10.38;;;;;;;;;;5121895;27;20038;-77
2022/11/03 14:30:54;;;;;;;15.20;9.82;;;;;;;;;;5122063;27;20019;-78
2022/11/03 14:33:20;;;;;;;11.68;7.80;;;;;;;;;;5113301;27;20341;-80
2022/11/03 14:35:45;;;;;;;12.73;8.95;;;;;;;;;;5110883;27;20020;-83
2022/11/03 14:38:10;;;;;;;11.35;8.52;;;;;;;;;;5109051;27;20357;-76
2022/11/03 14:43:20;;;;;;;13.20;8.45;;;;;;;;;;5121922;27;20122;-78